createdAt,value
2022-12-20T00:49:55.705Z,101746.22
2022-12-20T00:52:22.284Z,101731.78
2022-12-20T00:54:48.842Z,101719.06
2022-12-20T00:57:15.408Z,101725.03
2022-12-20T00:59:42.041Z,101726.16
2022-12-20T01:24:21.280Z,101703.28
2022-12-20T01:26:48.185Z,101708.37
2022-12-20T01:29:15.342Z,101716.19
2022-12-20T01:35:57.641Z,101694.72
2022-12-20T01:38:24.530Z,101698.88
2022-12-20T01:55:47.974Z,101659.84
2022-12-20T01:58:18.784Z,101656.25
2022-12-20T02:01:16.200Z,101657.28
2022-12-20T02:04:43.534Z,101640.84
2022-12-20T02:07:17.529Z,101626.94
2022-12-20T02:09:44.998Z,101626.44
2022-12-20T02:12:13.238Z,101620.22
2022-12-20T02:15:04.615Z,101622.81
2022-12-20T02:17:31.130Z,101625.19
2022-12-20T02:20:57.588Z,101621.91
2022-12-20T02:23:36.269Z,101616.06
2022-12-20T02:26:02.755Z,101616.16
2022-12-20T02:28:50.793Z,101617.53
2022-12-20T02:35:24.048Z,101615.53
2022-12-20T02:43:42.233Z,101622.28
2022-12-20T02:46:11.655Z,101605.16
2022-12-20T02:48:39.641Z,101607.03
2022-12-20T03:26:21.567Z,101584.88
2022-12-20T03:28:48.161Z,101578.19
2022-12-20T03:31:15.399Z,101568.63
2022-12-20T03:33:42.413Z,101564.53
2022-12-20T03:36:09.137Z,101557.53
2022-12-20T03:38:35.740Z,101558.84
2022-12-20T03:45:15.976Z,101571.12
2022-12-20T03:48:02.544Z,101573.16
2022-12-20T03:50:29.762Z,101574.62
2022-12-20T03:52:56.414Z,101577.25
2022-12-20T03:55:23.311Z,101572.97
2022-12-20T04:17:25.732Z,101563.31
2022-12-20T04:19:52.293Z,101547.22
2022-12-20T04:22:18.920Z,101538.63
2022-12-20T04:29:23.196Z,101520.66
2022-12-20T04:31:49.836Z,101531.56
2022-12-20T04:34:36.367Z,101521.63
2022-12-20T04:37:03.009Z,101521.63
2022-12-20T04:39:34.544Z,101514.91
2022-12-20T04:42:21.163Z,101516.72
2022-12-20T05:44:30.795Z,101556.09
2022-12-20T05:46:57.388Z,101554.44
2022-12-20T05:49:24.076Z,101553.19
2022-12-20T05:51:50.642Z,101557.03
2022-12-20T05:54:17.225Z,101556.22
2022-12-20T05:56:43.811Z,101553.97
2022-12-20T05:59:10.414Z,101539.41
2022-12-20T06:01:37.219Z,101540.41
2022-12-20T06:04:04.193Z,101537.44
2022-12-20T06:06:30.931Z,101534.34
2022-12-20T06:08:57.580Z,101524.66
2022-12-20T06:11:29.620Z,101513.31
2022-12-20T06:13:57.036Z,101520.69
2022-12-20T06:16:23.764Z,101517.75
2022-12-20T06:18:50.421Z,101516.34
2022-12-20T06:21:16.962Z,101512.13
2022-12-20T06:23:43.565Z,101507.44
2022-12-20T06:26:10.211Z,101504.19
2022-12-20T06:28:42.700Z,101512.25
2022-12-20T06:31:11.163Z,101511.44
2022-12-20T06:33:38.042Z,101506.34
2022-12-20T06:36:05.063Z,101503.50
2022-12-20T06:38:31.719Z,101507.34
2022-12-20T06:40:58.426Z,101499.72
2022-12-20T06:43:25.133Z,101507.81
2022-12-20T06:45:51.904Z,101508.22
2022-12-20T06:48:18.584Z,101511.22
2022-12-20T06:50:48.061Z,101509.03
2022-12-20T06:53:18.762Z,101498.09
2022-12-20T06:55:47.735Z,101494.25
2022-12-20T06:58:14.347Z,101498.00
2022-12-20T07:00:40.905Z,101495.25
2022-12-20T07:03:07.752Z,101489.12
2022-12-20T07:05:34.495Z,101491.97
2022-12-20T07:08:02.849Z,101497.31
2022-12-20T07:10:29.471Z,101490.66
2022-12-20T07:12:56.285Z,101486.00
2022-12-20T07:15:22.936Z,101487.75
2022-12-20T07:17:49.543Z,101478.84
2022-12-20T07:20:16.776Z,101480.69
2022-12-20T07:22:43.784Z,101476.19
2022-12-20T07:25:11.113Z,101471.59
2022-12-20T07:27:37.784Z,101478.16
2022-12-20T07:30:05.234Z,101474.00
2022-12-20T07:32:32.192Z,101491.09
2022-12-20T07:34:59.126Z,101492.50
2022-12-20T07:37:25.802Z,101491.00
2022-12-20T07:39:52.407Z,101486.59
2022-12-20T07:42:18.979Z,101489.84
2022-12-20T07:44:45.570Z,101490.63
2022-12-20T07:47:12.132Z,101484.13
2022-12-20T07:49:38.950Z,101493.38
2022-12-20T07:52:08.511Z,101499.28
2022-12-20T07:54:38.205Z,101479.53
2022-12-20T07:57:12.527Z,101484.03
2022-12-20T07:59:46.833Z,101487.31
2022-12-20T08:02:20.699Z,101486.41
2022-12-20T08:04:48.337Z,101476.66
2022-12-20T08:07:14.999Z,101471.25
2022-12-20T08:09:44.229Z,101472.84
2022-12-20T08:12:15.925Z,101469.62
2022-12-20T08:14:43.092Z,101452.12
2022-12-20T08:17:10.271Z,101453.72
2022-12-20T08:19:36.898Z,101448.44
2022-12-20T08:22:03.863Z,101435.06
2022-12-20T08:27:05.698Z,101447.84
2022-12-20T08:29:32.265Z,101445.25
2022-12-20T08:32:10.809Z,101446.69
2022-12-20T08:34:37.432Z,101444.28
2022-12-20T08:37:07.804Z,101455.28
2022-12-20T10:19:52.434Z,101373.19
2022-12-20T10:22:22.436Z,101361.47
2022-12-20T10:25:24.044Z,101366.44
2022-12-20T10:27:55.343Z,101353.56
2022-12-20T10:30:27.613Z,101346.75
2022-12-20T10:37:01.485Z,101337.34
2022-12-20T10:57:42.130Z,101300.66
2022-12-20T11:00:29.796Z,101307.81
2022-12-20T11:05:31.783Z,101289.62
2022-12-20T11:08:38.093Z,101287.59
2022-12-20T11:11:43.318Z,101278.66
2022-12-20T11:14:15.189Z,101275.56
2022-12-20T11:16:45.977Z,101272.47
2022-12-20T11:19:38.870Z,101253.59
2022-12-20T11:22:53.837Z,101246.84
2022-12-20T11:45:14.931Z,101248.31
2022-12-20T11:48:09.865Z,101243.19
2022-12-20T11:50:42.817Z,101232.97
2022-12-20T11:53:53.705Z,101224.69
2022-12-20T13:29:23.451Z,101152.94
2022-12-20T13:31:54.351Z,101154.94
2022-12-20T13:34:55.652Z,101155.81
2022-12-20T13:37:29.645Z,101152.56
2022-12-20T13:39:57.767Z,101139.84
2022-12-20T14:10:29.169Z,101112.84
2022-12-20T14:12:56.123Z,101111.06
2022-12-20T14:15:25.804Z,101106.06
2022-12-20T14:17:52.447Z,101099.13
2022-12-20T14:20:50.375Z,101104.72
2022-12-20T19:31:37.411Z,100938.69
2022-12-20T19:34:10.592Z,100932.22
2022-12-20T19:36:40.584Z,100934.88
2022-12-20T19:39:12.313Z,100940.28
2022-12-20T20:59:49.879Z,100930.41
2022-12-20T21:02:16.737Z,100917.97
2022-12-20T21:04:59.301Z,100931.16
2022-12-20T21:12:56.437Z,100922.44
2022-12-20T21:15:27.768Z,100924.97
2022-12-20T21:18:01.348Z,100916.28
2022-12-20T21:20:27.904Z,100910.94
2022-12-20T21:22:55.157Z,100911.63
2022-12-20T21:25:21.795Z,100908.78
2022-12-20T21:27:50.721Z,100915.72
2022-12-20T21:30:21.181Z,100910.72
2022-12-20T21:44:38.915Z,100892.66
2022-12-20T21:52:16.232Z,100876.16
2022-12-20T21:54:43.236Z,100866.84
2022-12-20T21:57:11.001Z,100858.97
2022-12-20T21:59:38.132Z,100860.50
2022-12-20T22:02:05.433Z,100859.00
2022-12-20T22:07:07.490Z,100863.38
2022-12-20T22:09:37.031Z,100856.31
2022-12-20T22:12:25.222Z,100845.12
2022-12-20T22:14:51.782Z,100845.25
2022-12-20T22:17:40.333Z,100820.75
2022-12-20T22:20:24.803Z,100833.63
2022-12-20T22:25:36.481Z,100831.13
2022-12-20T22:30:58.937Z,100836.78
2022-12-20T22:36:01.206Z,100818.97
2022-12-20T22:41:30.308Z,100801.94
2022-12-20T22:46:32.784Z,100795.34
2022-12-20T22:54:41.575Z,100784.78
2022-12-20T22:59:50.032Z,100785.47
2022-12-20T23:02:16.936Z,100775.03
2022-12-20T23:05:09.166Z,100778.03
2022-12-20T23:07:35.836Z,100778.56
2022-12-20T23:10:02.483Z,100780.44
2022-12-20T23:12:50.857Z,100771.94
2022-12-20T23:15:36.116Z,100760.59
2022-12-20T23:28:37.041Z,100758.66
2022-12-20T23:31:04.980Z,100756.72
2022-12-20T23:37:02.785Z,100747.31
2022-12-20T23:39:29.332Z,100744.81
2022-12-20T23:41:55.889Z,100740.91
2022-12-20T23:44:22.539Z,100735.41
2022-12-20T23:46:49.120Z,100731.47
2022-12-20T23:49:15.829Z,100731.34
2022-12-20T23:54:21.627Z,100717.94
2022-12-20T23:56:48.845Z,100724.41
2022-12-20T23:59:15.678Z,100708.19
